aviador You're here:

YSWG Decoded Metar

WAGGA WAGGA in AUSTRALIA
Report Time2018-05-20 22:30:00
UTC Time2018-05-20 23:02:43
Flight Rules mvfr MVFR
Wind240° at 10 kt
W.Decomp.*RWY 23: 10.0 kt HW 0.3 kt LCW
RWY 30: 3.1 kt HW 9.5 kt LCW
W.Rank240° ranks 11
Current wind is above 240° avg. (9.1)
Visibility9999 m
Phenomena:N/A
Clouds:Overcast 011 Hf
Expected CloudBase > 400 ft AGL from Temp-Dew spread
Ceiling1,100 ft
Temp11°C (ISA -3)
Dew Point10°C (94% RH)
AAT7.5°C
QNH1023 hPa
Density Alt217 ft
Elevation699 ft
Report Wrong Elevation
Raw Report
SPECI YSWG 202230Z 24010KT 9999 OVC011 11/10 Q1023=

Extra information for YSWG:More info

Metar Taf Metar & Taf Last 4 Metars F.Rules Stats Wind Profile Meteogram Temp Stats Airport Information Weather charts Add Link Nearby VenuesMetar ALERT Operation Metar Decoded Social comments